sensor_id;sensor_type;location;lat;lon;timestamp;pressure;altitude;pressure_sealevel;temperature;humidity
8705;BME280;4389;41.932;25.904;2022-12-07T00:00:53;100746.09;;;7.54;100.00
8705;BME280;4389;41.932;25.904;2022-12-07T00:03:20;100750.59;;;7.65;100.00
8705;BME280;4389;41.932;25.904;2022-12-07T00:05:46;100763.00;;;7.63;100.00
8705;BME280;4389;41.932;25.904;2022-12-07T00:08:14;100761.94;;;7.65;100.00
8705;BME280;4389;41.932;25.904;2022-12-07T00:10:41;100749.69;;;7.77;100.00
8705;BME280;4389;41.932;25.904;2022-12-07T00:13:08;100754.31;;;7.86;100.00
8705;BME280;4389;41.932;25.904;2022-12-07T00:15:35;100756.16;;;7.96;100.00
8705;BME280;4389;41.932;25.904;2022-12-07T00:18:02;100762.13;;;7.75;100.00
8705;BME280;4389;41.932;25.904;2022-12-07T00:20:29;100758.09;;;7.82;100.00
8705;BME280;4389;41.932;25.904;2022-12-07T00:22:56;100757.28;;;7.69;100.00
8705;BME280;4389;41.932;25.904;2022-12-07T00:25:25;100754.75;;;7.80;100.00
8705;BME280;4389;41.932;25.904;2022-12-07T00:27:52;100749.81;;;7.75;100.00
8705;BME280;4389;41.932;25.904;2022-12-07T00:30:21;100755.34;;;7.83;100.00
8705;BME280;4389;41.932;25.904;2022-12-07T00:32:48;100754.13;;;7.76;100.00
8705;BME280;4389;41.932;25.904;2022-12-07T00:35:15;100747.13;;;7.88;100.00
8705;BME280;4389;41.932;25.904;2022-12-07T00:37:42;100750.47;;;7.90;100.00
8705;BME280;4389;41.932;25.904;2022-12-07T00:40:09;100745.03;;;8.04;100.00
8705;BME280;4389;41.932;25.904;2022-12-07T00:42:45;100749.13;;;8.08;100.00
8705;BME280;4389;41.932;25.904;2022-12-07T00:45:12;100753.00;;;7.91;100.00
8705;BME280;4389;41.932;25.904;2022-12-07T00:47:39;100759.34;;;7.89;100.00
8705;BME280;4389;41.932;25.904;2022-12-07T00:50:07;100759.88;;;8.05;100.00
8705;BME280;4389;41.932;25.904;2022-12-07T00:52:34;100756.25;;;7.95;100.00
8705;BME280;4389;41.932;25.904;2022-12-07T00:55:00;100753.63;;;7.95;100.00
8705;BME280;4389;41.932;25.904;2022-12-07T00:57:27;100749.34;;;8.05;100.00
8705;BME280;4389;41.932;25.904;2022-12-07T00:59:55;100742.63;;;8.01;100.00
8705;BME280;4389;41.932;25.904;2022-12-07T01:02:23;100752.56;;;7.97;100.00
8705;BME280;4389;41.932;25.904;2022-12-07T01:04:50;100749.31;;;7.94;100.00
8705;BME280;4389;41.932;25.904;2022-12-07T01:07:16;100747.47;;;8.07;100.00
8705;BME280;4389;41.932;25.904;2022-12-07T01:09:43;100745.44;;;8.10;100.00
8705;BME280;4389;41.932;25.904;2022-12-07T01:12:10;100738.59;;;8.08;100.00
8705;BME280;4389;41.932;25.904;2022-12-07T01:14:37;100736.41;;;8.02;100.00
8705;BME280;4389;41.932;25.904;2022-12-07T01:17:05;100732.00;;;8.13;100.00
8705;BME280;4389;41.932;25.904;2022-12-07T01:19:32;100738.13;;;8.14;100.00
8705;BME280;4389;41.932;25.904;2022-12-07T01:21:59;100729.91;;;7.95;100.00
8705;BME280;4389;41.932;25.904;2022-12-07T01:24:26;100731.69;;;7.94;100.00
8705;BME280;4389;41.932;25.904;2022-12-07T01:26:52;100729.72;;;8.09;100.00
8705;BME280;4389;41.932;25.904;2022-12-07T01:29:19;100733.94;;;8.11;100.00
8705;BME280;4389;41.932;25.904;2022-12-07T01:31:48;100732.97;;;8.12;100.00
8705;BME280;4389;41.932;25.904;2022-12-07T01:34:17;100734.28;;;8.07;100.00
8705;BME280;4389;41.932;25.904;2022-12-07T01:36:44;100735.38;;;8.15;100.00
8705;BME280;4389;41.932;25.904;2022-12-07T01:39:10;100736.41;;;8.25;100.00
8705;BME280;4389;41.932;25.904;2022-12-07T01:41:40;100730.53;;;8.22;100.00
8705;BME280;4389;41.932;25.904;2022-12-07T01:44:15;100724.81;;;8.28;100.00
8705;BME280;4389;41.932;25.904;2022-12-07T01:46:44;100712.94;;;8.33;100.00
8705;BME280;4389;41.932;25.904;2022-12-07T01:49:17;100719.66;;;8.37;100.00
8705;BME280;4389;41.932;25.904;2022-12-07T01:51:47;100715.44;;;8.35;100.00
8705;BME280;4389;41.932;25.904;2022-12-07T01:54:16;100708.75;;;8.31;100.00
8705;BME280;4389;41.932;25.904;2022-12-07T01:56:49;100714.03;;;8.31;100.00
8705;BME280;4389;41.932;25.904;2022-12-07T01:59:19;100713.78;;;8.34;100.00
8705;BME280;4389;41.932;25.904;2022-12-07T02:01:48;100707.78;;;8.32;100.00
8705;BME280;4389;41.932;25.904;2022-12-07T02:04:16;100716.19;;;8.37;100.00
8705;BME280;4389;41.932;25.904;2022-12-07T02:06:44;100704.22;;;8.44;100.00
8705;BME280;4389;41.932;25.904;2022-12-07T02:09:13;100709.03;;;8.50;100.00
8705;BME280;4389;41.932;25.904;2022-12-07T02:11:40;100712.59;;;8.49;100.00
8705;BME280;4389;41.932;25.904;2022-12-07T02:14:08;100705.78;;;8.57;100.00
8705;BME280;4389;41.932;25.904;2022-12-07T02:16:41;100701.13;;;8.61;100.00
8705;BME280;4389;41.932;25.904;2022-12-07T02:19:39;100703.75;;;8.61;100.00
8705;BME280;4389;41.932;25.904;2022-12-07T02:22:25;100704.22;;;8.55;100.00
8705;BME280;4389;41.932;25.904;2022-12-07T02:24:58;100700.16;;;8.62;100.00
8705;BME280;4389;41.932;25.904;2022-12-07T02:27:40;100694.28;;;8.58;100.00
8705;BME280;4389;41.932;25.904;2022-12-07T02:30:13;100687.22;;;8.59;100.00
8705;BME280;4389;41.932;25.904;2022-12-07T02:32:45;100696.09;;;8.69;100.00
8705;BME280;4389;41.932;25.904;2022-12-07T02:35:18;100693.47;;;8.69;100.00
8705;BME280;4389;41.932;25.904;2022-12-07T02:37:55;100696.25;;;8.67;100.00
8705;BME280;4389;41.932;25.904;2022-12-07T02:40:28;100690.59;;;8.72;100.00
8705;BME280;4389;41.932;25.904;2022-12-07T02:43:02;100684.84;;;8.67;100.00
8705;BME280;4389;41.932;25.904;2022-12-07T02:45:34;100689.63;;;8.73;100.00
8705;BME280;4389;41.932;25.904;2022-12-07T02:48:02;100689.28;;;8.77;100.00
8705;BME280;4389;41.932;25.904;2022-12-07T02:50:31;100692.38;;;8.71;100.00
8705;BME280;4389;41.932;25.904;2022-12-07T02:52:58;100686.03;;;8.74;100.00
8705;BME280;4389;41.932;25.904;2022-12-07T02:55:28;100676.34;;;8.74;100.00
8705;BME280;4389;41.932;25.904;2022-12-07T02:58:12;100673.44;;;8.77;100.00
8705;BME280;4389;41.932;25.904;2022-12-07T03:00:50;100675.34;;;8.64;100.00
8705;BME280;4389;41.932;25.904;2022-12-07T03:03:18;100672.13;;;8.72;100.00
8705;BME280;4389;41.932;25.904;2022-12-07T03:05:58;100672.59;;;8.66;100.00
8705;BME280;4389;41.932;25.904;2022-12-07T03:08:36;100675.13;;;8.67;100.00
8705;BME280;4389;41.932;25.904;2022-12-07T03:11:06;100679.69;;;8.76;100.00
8705;BME280;4389;41.932;25.904;2022-12-07T03:13:39;100667.09;;;8.69;100.00
8705;BME280;4389;41.932;25.904;2022-12-07T03:16:14;100670.94;;;8.65;100.00
8705;BME280;4389;41.932;25.904;2022-12-07T03:18:45;100669.94;;;8.55;100.00
8705;BME280;4389;41.932;25.904;2022-12-07T03:21:16;100662.28;;;8.52;100.00
8705;BME280;4389;41.932;25.904;2022-12-07T03:23:48;100669.34;;;8.51;100.00
8705;BME280;4389;41.932;25.904;2022-12-07T03:26:19;100661.34;;;8.64;100.00
8705;BME280;4389;41.932;25.904;2022-12-07T03:28:52;100673.78;;;8.62;100.00
8705;BME280;4389;41.932;25.904;2022-12-07T03:31:24;100669.00;;;8.67;100.00
8705;BME280;4389;41.932;25.904;2022-12-07T03:33:56;100670.47;;;8.71;100.00
8705;BME280;4389;41.932;25.904;2022-12-07T03:36:28;100668.41;;;8.63;100.00
8705;BME280;4389;41.932;25.904;2022-12-07T03:39:02;100672.84;;;8.74;100.00
8705;BME280;4389;41.932;25.904;2022-12-07T03:41:31;100671.66;;;8.78;100.00
8705;BME280;4389;41.932;25.904;2022-12-07T03:44:00;100669.03;;;8.78;100.00
8705;BME280;4389;41.932;25.904;2022-12-07T03:46:34;100679.09;;;8.73;100.00
8705;BME280;4389;41.932;25.904;2022-12-07T03:49:07;100675.97;;;8.79;100.00
8705;BME280;4389;41.932;25.904;2022-12-07T03:51:40;100676.44;;;8.83;100.00
8705;BME280;4389;41.932;25.904;2022-12-07T03:54:14;100676.44;;;8.73;100.00
8705;BME280;4389;41.932;25.904;2022-12-07T03:56:43;100679.56;;;8.67;100.00
8705;BME280;4389;41.932;25.904;2022-12-07T03:59:12;100672.13;;;8.72;100.00
8705;BME280;4389;41.932;25.904;2022-12-07T04:01:43;100664.69;;;8.77;100.00
8705;BME280;4389;41.932;25.904;2022-12-07T04:04:10;100666.38;;;8.78;100.00
8705;BME280;4389;41.932;25.904;2022-12-07T04:06:37;100669.50;;;8.72;100.00
8705;BME280;4389;41.932;25.904;2022-12-07T04:09:04;100667.81;;;8.60;100.00
8705;BME280;4389;41.932;25.904;2022-12-07T04:11:31;100672.59;;;8.66;100.00
8705;BME280;4389;41.932;25.904;2022-12-07T04:13:58;100668.28;;;8.76;100.00
8705;BME280;4389;41.932;25.904;2022-12-07T04:16:44;100658.47;;;8.67;100.00
8705;BME280;4389;41.932;25.904;2022-12-07T04:19:11;100663.00;;;8.76;100.00
8705;BME280;4389;41.932;25.904;2022-12-07T04:21:38;100652.72;;;8.73;100.00
8705;BME280;4389;41.932;25.904;2022-12-07T04:24:05;100655.94;;;8.65;100.00
8705;BME280;4389;41.932;25.904;2022-12-07T04:26:33;100663.84;;;8.54;100.00
8705;BME280;4389;41.932;25.904;2022-12-07T04:28:59;100662.28;;;8.63;100.00
8705;BME280;4389;41.932;25.904;2022-12-07T04:31:26;100665.66;;;8.65;100.00
8705;BME280;4389;41.932;25.904;2022-12-07T04:33:54;100666.34;;;8.56;100.00
8705;BME280;4389;41.932;25.904;2022-12-07T04:36:21;100658.94;;;8.61;100.00
8705;BME280;4389;41.932;25.904;2022-12-07T04:38:48;100663.47;;;8.70;100.00
8705;BME280;4389;41.932;25.904;2022-12-07T04:41:15;100663.25;;;8.73;100.00
8705;BME280;4389;41.932;25.904;2022-12-07T04:43:42;100656.53;;;8.69;100.00
8705;BME280;4389;41.932;25.904;2022-12-07T04:46:09;100659.19;;;8.80;100.00
8705;BME280;4389;41.932;25.904;2022-12-07T04:48:36;100664.22;;;8.82;100.00
8705;BME280;4389;41.932;25.904;2022-12-07T04:51:05;100659.91;;;8.82;100.00
8705;BME280;4389;41.932;25.904;2022-12-07T04:53:32;100674.06;;;8.81;100.00
8705;BME280;4389;41.932;25.904;2022-12-07T04:55:58;100673.22;;;8.91;100.00
8705;BME280;4389;41.932;25.904;2022-12-07T04:58:26;100661.81;;;8.80;100.00
8705;BME280;4389;41.932;25.904;2022-12-07T05:00:54;100671.66;;;8.78;100.00
8705;BME280;4389;41.932;25.904;2022-12-07T05:03:21;100667.81;;;8.82;100.00
8705;BME280;4389;41.932;25.904;2022-12-07T05:05:48;100666.13;;;8.81;100.00
8705;BME280;4389;41.932;25.904;2022-12-07T05:08:16;100666.84;;;8.93;100.00
8705;BME280;4389;41.932;25.904;2022-12-07T05:10:43;100671.16;;;8.83;100.00
8705;BME280;4389;41.932;25.904;2022-12-07T05:13:10;100675.72;;;8.82;100.00
8705;BME280;4389;41.932;25.904;2022-12-07T05:15:37;100675.00;;;8.80;100.00
8705;BME280;4389;41.932;25.904;2022-12-07T05:18:04;100673.56;;;8.76;100.00
8705;BME280;4389;41.932;25.904;2022-12-07T05:20:31;100670.94;;;8.76;100.00
8705;BME280;4389;41.932;25.904;2022-12-07T05:22:58;100673.78;;;8.83;100.00
8705;BME280;4389;41.932;25.904;2022-12-07T05:25:26;100674.41;;;8.76;100.00
8705;BME280;4389;41.932;25.904;2022-12-07T05:27:54;100676.78;;;8.79;100.00
8705;BME280;4389;41.932;25.904;2022-12-07T05:30:22;100677.28;;;8.62;100.00
8705;BME280;4389;41.932;25.904;2022-12-07T05:32:49;100681.84;;;8.71;100.00
8705;BME280;4389;41.932;25.904;2022-12-07T05:35:16;100678.84;;;8.76;100.00
8705;BME280;4389;41.932;25.904;2022-12-07T05:37:43;100672.59;;;8.77;100.00
8705;BME280;4389;41.932;25.904;2022-12-07T05:40:11;100669.72;;;8.69;100.00
8705;BME280;4389;41.932;25.904;2022-12-07T05:42:40;100668.03;;;8.68;100.00
8705;BME280;4389;41.932;25.904;2022-12-07T05:45:08;100671.88;;;8.75;100.00
8705;BME280;4389;41.932;25.904;2022-12-07T05:47:35;100675.75;;;8.71;100.00
8705;BME280;4389;41.932;25.904;2022-12-07T05:50:03;100675.72;;;8.82;100.00
8705;BME280;4389;41.932;25.904;2022-12-07T05:52:30;100665.66;;;8.87;100.00
8705;BME280;4389;41.932;25.904;2022-12-07T05:54:57;100675.75;;;8.93;100.00
8705;BME280;4389;41.932;25.904;2022-12-07T05:57:24;100669.38;;;8.95;100.00
8705;BME280;4389;41.932;25.904;2022-12-07T05:59:52;100663.13;;;9.07;100.00
8705;BME280;4389;41.932;25.904;2022-12-07T06:02:18;100670.22;;;8.95;100.00
8705;BME280;4389;41.932;25.904;2022-12-07T06:04:46;100665.63;;;9.08;100.00
8705;BME280;4389;41.932;25.904;2022-12-07T06:07:14;100664.41;;;9.23;100.00
8705;BME280;4389;41.932;25.904;2022-12-07T06:09:42;100668.97;;;9.21;100.00
8705;BME280;4389;41.932;25.904;2022-12-07T06:12:10;100665.59;;;9.30;100.00
8705;BME280;4389;41.932;25.904;2022-12-07T06:14:56;100673.50;;;9.41;100.00
8705;BME280;4389;41.932;25.904;2022-12-07T06:17:23;100671.09;;;9.49;100.00
8705;BME280;4389;41.932;25.904;2022-12-07T06:19:50;100667.22;;;9.53;100.00
8705;BME280;4389;41.932;25.904;2022-12-07T06:22:18;100668.41;;;9.60;100.00
8705;BME280;4389;41.932;25.904;2022-12-07T06:24:44;100673.19;;;9.66;100.00
8705;BME280;4389;41.932;25.904;2022-12-07T06:27:12;100667.91;;;9.66;100.00
8705;BME280;4389;41.932;25.904;2022-12-07T06:29:39;100675.22;;;9.63;100.00
8705;BME280;4389;41.932;25.904;2022-12-07T06:32:07;100671.25;;;9.68;100.00
8705;BME280;4389;41.932;25.904;2022-12-07T06:34:34;100675.25;;;9.83;100.00
8705;BME280;4389;41.932;25.904;2022-12-07T06:37:01;100680.53;;;9.83;100.00
8705;BME280;4389;41.932;25.904;2022-12-07T06:39:29;100682.38;;;9.83;100.00
8705;BME280;4389;41.932;25.904;2022-12-07T06:41:56;100684.13;;;9.93;100.00
8705;BME280;4389;41.932;25.904;2022-12-07T06:44:24;100683.84;;;10.07;100.00
8705;BME280;4389;41.932;25.904;2022-12-07T06:46:52;100679.22;;;10.20;100.00
8705;BME280;4389;41.932;25.904;2022-12-07T06:49:20;100675.09;;;10.27;100.00
8705;BME280;4389;41.932;25.904;2022-12-07T06:51:47;100679.59;;;10.36;100.00
8705;BME280;4389;41.932;25.904;2022-12-07T06:54:16;100679.03;;;10.33;100.00
8705;BME280;4389;41.932;25.904;2022-12-07T06:56:43;100678.56;;;10.28;100.00
8705;BME280;4389;41.932;25.904;2022-12-07T06:59:10;100682.44;;;10.44;100.00
8705;BME280;4389;41.932;25.904;2022-12-07T07:01:37;100682.78;;;10.60;100.00
8705;BME280;4389;41.932;25.904;2022-12-07T07:04:04;100683.44;;;10.73;100.00
8705;BME280;4389;41.932;25.904;2022-12-07T07:06:33;100686.56;;;10.88;99.19
8705;BME280;4389;41.932;25.904;2022-12-07T07:09:00;100682.38;;;10.85;98.33
8705;BME280;4389;41.932;25.904;2022-12-07T07:11:27;100682.38;;;10.85;98.30
8705;BME280;4389;41.932;25.904;2022-12-07T07:13:54;100678.88;;;10.55;98.39
8705;BME280;4389;41.932;25.904;2022-12-07T07:16:22;100676.09;;;10.36;98.86
8705;BME280;4389;41.932;25.904;2022-12-07T07:18:49;100681.78;;;10.31;99.73
8705;BME280;4389;41.932;25.904;2022-12-07T07:21:16;100682.84;;;10.19;99.94
8705;BME280;4389;41.932;25.904;2022-12-07T07:23:44;100680.97;;;9.99;100.00
8705;BME280;4389;41.932;25.904;2022-12-07T07:26:11;100686.69;;;10.15;100.00
8705;BME280;4389;41.932;25.904;2022-12-07T07:28:38;100681.34;;;10.26;100.00
8705;BME280;4389;41.932;25.904;2022-12-07T07:31:05;100688.50;;;10.35;100.00
8705;BME280;4389;41.932;25.904;2022-12-07T07:33:32;100687.22;;;10.50;100.00
8705;BME280;4389;41.932;25.904;2022-12-07T07:35:59;100691.97;;;10.56;99.29
8705;BME280;4389;41.932;25.904;2022-12-07T07:38:26;100693.56;;;10.68;99.08
8705;BME280;4389;41.932;25.904;2022-12-07T07:40:54;100685.63;;;10.68;98.25
8705;BME280;4389;41.932;25.904;2022-12-07T07:43:21;100687.22;;;10.80;98.26
8705;BME280;4389;41.932;25.904;2022-12-07T07:45:47;100683.88;;;10.78;97.73
8705;BME280;4389;41.932;25.904;2022-12-07T07:48:14;100689.00;;;10.70;98.33
8705;BME280;4389;41.932;25.904;2022-12-07T07:50:41;100679.50;;;10.68;99.03
8705;BME280;4389;41.932;25.904;2022-12-07T07:53:08;100682.09;;;10.88;97.80
8705;BME280;4389;41.932;25.904;2022-12-07T07:55:35;100688.28;;;10.98;98.08
8705;BME280;4389;41.932;25.904;2022-12-07T07:58:03;100680.53;;;11.06;97.91
8705;BME280;4389;41.932;25.904;2022-12-07T08:00:30;100684.06;;;11.26;96.27
8705;BME280;4389;41.932;25.904;2022-12-07T08:02:57;100680.59;;;11.35;95.89
8705;BME280;4389;41.932;25.904;2022-12-07T08:05:24;100680.47;;;11.36;94.87
8705;BME280;4389;41.932;25.904;2022-12-07T08:07:51;100681.56;;;11.34;95.99
8705;BME280;4389;41.932;25.904;2022-12-07T08:10:18;100672.88;;;11.71;95.09
8705;BME280;4389;41.932;25.904;2022-12-07T08:12:45;100679.31;;;11.97;94.75
8705;BME280;4389;41.932;25.904;2022-12-07T08:15:30;100682.94;;;12.06;92.32
8705;BME280;4389;41.932;25.904;2022-12-07T08:17:57;100687.41;;;12.05;92.40
8705;BME280;4389;41.932;25.904;2022-12-07T08:20:24;100683.91;;;12.05;93.23
8705;BME280;4389;41.932;25.904;2022-12-07T08:22:51;100682.25;;;12.13;92.58
8705;BME280;4389;41.932;25.904;2022-12-07T08:25:19;100680.97;;;11.79;93.28
8705;BME280;4389;41.932;25.904;2022-12-07T08:27:46;100689.91;;;12.07;92.95
8705;BME280;4389;41.932;25.904;2022-12-07T08:30:13;100693.53;;;12.15;92.36
8705;BME280;4389;41.932;25.904;2022-12-07T08:32:41;100696.31;;;12.33;91.75
8705;BME280;4389;41.932;25.904;2022-12-07T08:35:09;100691.00;;;12.23;90.25
8705;BME280;4389;41.932;25.904;2022-12-07T08:37:36;100689.31;;;12.41;91.37
8705;BME280;4389;41.932;25.904;2022-12-07T08:40:05;100686.94;;;12.38;91.23
8705;BME280;4389;41.932;25.904;2022-12-07T08:42:32;100684.69;;;12.43;90.51
8705;BME280;4389;41.932;25.904;2022-12-07T08:45:07;100685.50;;;12.53;89.24
8705;BME280;4389;41.932;25.904;2022-12-07T08:47:34;100683.03;;;12.42;89.49
8705;BME280;4389;41.932;25.904;2022-12-07T08:50:06;100680.25;;;12.44;88.93
8705;BME280;4389;41.932;25.904;2022-12-07T08:52:34;100674.53;;;12.29;89.88
8705;BME280;4389;41.932;25.904;2022-12-07T08:55:02;100671.19;;;12.27;89.86
8705;BME280;4389;41.932;25.904;2022-12-07T08:57:32;100661.41;;;12.28;89.71
8705;BME280;4389;41.932;25.904;2022-12-07T09:00:00;100662.50;;;12.25;90.70
8705;BME280;4389;41.932;25.904;2022-12-07T09:02:26;100658.91;;;12.26;91.04
8705;BME280;4389;41.932;25.904;2022-12-07T09:04:53;100659.19;;;12.23;90.84
8705;BME280;4389;41.932;25.904;2022-12-07T09:07:22;100656.41;;;12.06;92.46
8705;BME280;4389;41.932;25.904;2022-12-07T09:09:49;100652.38;;;11.83;92.86
8705;BME280;4389;41.932;25.904;2022-12-07T09:12:16;100636.47;;;11.64;93.30
8705;BME280;4389;41.932;25.904;2022-12-07T09:14:43;100648.25;;;11.41;94.58
8705;BME280;4389;41.932;25.904;2022-12-07T09:17:12;100636.63;;;11.62;96.06
8705;BME280;4389;41.932;25.904;2022-12-07T09:19:39;100628.94;;;11.88;94.28
8705;BME280;4389;41.932;25.904;2022-12-07T09:22:08;100627.09;;;12.07;94.21
8705;BME280;4389;41.932;25.904;2022-12-07T09:24:36;100616.63;;;12.15;93.18
8705;BME280;4389;41.932;25.904;2022-12-07T09:27:03;100617.09;;;12.47;92.46
8705;BME280;4389;41.932;25.904;2022-12-07T09:29:30;100615.53;;;12.54;91.53
8705;BME280;4389;41.932;25.904;2022-12-07T09:31:57;100610.50;;;12.51;91.33
8705;BME280;4389;41.932;25.904;2022-12-07T09:34:23;100604.13;;;12.35;91.32
8705;BME280;4389;41.932;25.904;2022-12-07T09:36:52;100612.47;;;12.49;91.26
8705;BME280;4389;41.932;25.904;2022-12-07T09:39:19;100605.53;;;12.39;91.19
8705;BME280;4389;41.932;25.904;2022-12-07T09:41:47;100607.53;;;12.27;92.99
8705;BME280;4389;41.932;25.904;2022-12-07T09:44:20;100600.41;;;12.18;92.75
8705;BME280;4389;41.932;25.904;2022-12-07T09:46:49;100604.78;;;12.00;92.57
8705;BME280;4389;41.932;25.904;2022-12-07T09:49:18;100598.50;;;11.82;93.85
8705;BME280;4389;41.932;25.904;2022-12-07T09:51:46;100593.38;;;11.71;94.54
8705;BME280;4389;41.932;25.904;2022-12-07T09:54:15;100597.81;;;11.80;94.68
8705;BME280;4389;41.932;25.904;2022-12-07T09:56:42;100598.38;;;11.74;94.41
8705;BME280;4389;41.932;25.904;2022-12-07T09:59:15;100601.44;;;11.89;94.93
8705;BME280;4389;41.932;25.904;2022-12-07T10:01:48;100598.22;;;11.95;93.84
8705;BME280;4389;41.932;25.904;2022-12-07T10:04:17;100591.06;;;12.14;93.56
8705;BME280;4389;41.932;25.904;2022-12-07T10:06:45;100596.06;;;12.17;93.14
8705;BME280;4389;41.932;25.904;2022-12-07T10:09:15;100590.94;;;12.06;93.56
8705;BME280;4389;41.932;25.904;2022-12-07T10:12:00;100596.03;;;12.36;93.21
8705;BME280;4389;41.932;25.904;2022-12-07T10:14:30;100590.03;;;12.71;91.86
8705;BME280;4389;41.932;25.904;2022-12-07T10:16:57;100595.78;;;12.93;89.83
8705;BME280;4389;41.932;25.904;2022-12-07T10:19:27;100580.28;;;12.62;90.05
8705;BME280;4389;41.932;25.904;2022-12-07T10:22:09;100573.81;;;12.74;89.53
8705;BME280;4389;41.932;25.904;2022-12-07T10:24:36;100574.72;;;12.82;89.83
8705;BME280;4389;41.932;25.904;2022-12-07T10:27:05;100577.84;;;13.05;89.14
8705;BME280;4389;41.932;25.904;2022-12-07T10:29:47;100575.69;;;13.35;87.48
8705;BME280;4389;41.932;25.904;2022-12-07T10:32:29;100569.53;;;12.90;86.96
8705;BME280;4389;41.932;25.904;2022-12-07T10:35:20;100562.16;;;12.57;89.45
8705;BME280;4389;41.932;25.904;2022-12-07T10:37:48;100564.44;;;12.43;89.91
8705;BME280;4389;41.932;25.904;2022-12-07T10:40:30;100561.56;;;12.63;90.13
8705;BME280;4389;41.932;25.904;2022-12-07T10:43:17;100553.31;;;12.93;88.97
8705;BME280;4389;41.932;25.904;2022-12-07T10:46:14;100550.31;;;13.23;88.06
8705;BME280;4389;41.932;25.904;2022-12-07T10:48:55;100546.41;;;13.27;88.02
8705;BME280;4389;41.932;25.904;2022-12-07T10:51:34;100541.06;;;13.62;86.67
8705;BME280;4389;41.932;25.904;2022-12-07T10:54:10;100541.56;;;13.83;86.00
8705;BME280;4389;41.932;25.904;2022-12-07T10:56:55;100549.00;;;13.97;85.05
8705;BME280;4389;41.932;25.904;2022-12-07T10:59:57;100543.72;;;14.05;84.19
8705;BME280;4389;41.932;25.904;2022-12-07T11:02:40;100535.13;;;13.68;85.13
8705;BME280;4389;41.932;25.904;2022-12-07T11:05:18;100535.75;;;13.62;86.97
8705;BME280;4389;41.932;25.904;2022-12-07T11:07:58;100535.44;;;13.65;86.65
8705;BME280;4389;41.932;25.904;2022-12-07T11:10:31;100536.28;;;13.48;86.46
8705;BME280;4389;41.932;25.904;2022-12-07T11:13:22;100531.97;;;13.47;87.19
8705;BME280;4389;41.932;25.904;2022-12-07T11:16:14;100529.16;;;13.31;87.91
8705;BME280;4389;41.932;25.904;2022-12-07T11:18:51;100526.34;;;13.15;88.78
8705;BME280;4389;41.932;25.904;2022-12-07T11:21:25;100514.63;;;13.08;88.66
8705;BME280;4389;41.932;25.904;2022-12-07T11:23:57;100511.47;;;13.22;88.55
8705;BME280;4389;41.932;25.904;2022-12-07T11:26:38;100512.66;;;13.45;88.51
8705;BME280;4389;41.932;25.904;2022-12-07T11:29:25;100509.72;;;13.48;87.98
8705;BME280;4389;41.932;25.904;2022-12-07T11:32:04;100512.59;;;13.37;88.05
8705;BME280;4389;41.932;25.904;2022-12-07T11:34:41;100493.47;;;13.34;87.61
8705;BME280;4389;41.932;25.904;2022-12-07T11:37:16;100503.81;;;13.19;88.96
8705;BME280;4389;41.932;25.904;2022-12-07T11:39:49;100501.97;;;13.37;89.03
8705;BME280;4389;41.932;25.904;2022-12-07T11:42:21;100495.50;;;13.57;88.05
8705;BME280;4389;41.932;25.904;2022-12-07T11:44:52;100501.47;;;13.59;87.97
8705;BME280;4389;41.932;25.904;2022-12-07T11:47:25;100491.09;;;13.48;88.25
8705;BME280;4389;41.932;25.904;2022-12-07T11:49:58;100489.81;;;13.35;89.16
8705;BME280;4389;41.932;25.904;2022-12-07T11:52:32;100484.16;;;13.12;89.88
8705;BME280;4389;41.932;25.904;2022-12-07T11:55:16;100474.41;;;13.03;90.51
8705;BME280;4389;41.932;25.904;2022-12-07T11:57:50;100465.56;;;12.85;91.05
8705;BME280;4389;41.932;25.904;2022-12-07T12:00:19;100468.31;;;12.93;92.02
8705;BME280;4389;41.932;25.904;2022-12-07T12:02:50;100466.94;;;12.89;92.00
8705;BME280;4389;41.932;25.904;2022-12-07T12:05:21;100467.75;;;12.99;91.46
8705;BME280;4389;41.932;25.904;2022-12-07T12:07:53;100466.38;;;12.95;91.64
8705;BME280;4389;41.932;25.904;2022-12-07T12:10:27;100460.72;;;12.81;92.01
8705;BME280;4389;41.932;25.904;2022-12-07T12:13:45;100464.81;;;12.75;92.77
8705;BME280;4389;41.932;25.904;2022-12-07T12:16:30;100461.47;;;12.73;92.91
8705;BME280;4389;41.932;25.904;2022-12-07T12:19:18;100452.69;;;12.90;92.19
8705;BME280;4389;41.932;25.904;2022-12-07T12:21:54;100450.44;;;12.95;92.10
8705;BME280;4389;41.932;25.904;2022-12-07T12:24:24;100447.31;;;13.00;91.15
8705;BME280;4389;41.932;25.904;2022-12-07T12:26:53;100451.31;;;12.86;92.16
8705;BME280;4389;41.932;25.904;2022-12-07T12:29:28;100450.47;;;12.86;92.71
8705;BME280;4389;41.932;25.904;2022-12-07T12:32:13;100451.63;;;12.83;92.94
8705;BME280;4389;41.932;25.904;2022-12-07T12:34:58;100451.91;;;12.80;93.17
8705;BME280;4389;41.932;25.904;2022-12-07T12:37:45;100447.19;;;12.74;93.52
8705;BME280;4389;41.932;25.904;2022-12-07T12:43:43;100443.69;;;12.56;93.90
8705;BME280;4389;41.932;25.904;2022-12-07T12:49:42;100445.03;;;12.43;95.40
8705;BME280;4389;41.932;25.904;2022-12-07T12:55:18;100437.91;;;12.43;94.49
8705;BME280;4389;41.932;25.904;2022-12-07T12:57:48;100436.72;;;12.55;94.82
8705;BME280;4389;41.932;25.904;2022-12-07T13:00:36;100434.16;;;12.63;94.29
8705;BME280;4389;41.932;25.904;2022-12-07T13:03:03;100435.06;;;12.54;94.63
8705;BME280;4389;41.932;25.904;2022-12-07T13:05:30;100441.72;;;12.58;94.60
8705;BME280;4389;41.932;25.904;2022-12-07T13:08:00;100441.03;;;12.56;94.08
8705;BME280;4389;41.932;25.904;2022-12-07T13:10:48;100431.69;;;12.52;94.60
8705;BME280;4389;41.932;25.904;2022-12-07T13:13:35;100432.59;;;12.43;95.15
8705;BME280;4389;41.932;25.904;2022-12-07T13:22:53;100434.00;;;12.47;96.01
8705;BME280;4389;41.932;25.904;2022-12-07T13:25:31;100433.34;;;12.36;96.55
8705;BME280;4389;41.932;25.904;2022-12-07T13:28:02;100434.66;;;12.22;96.70
8705;BME280;4389;41.932;25.904;2022-12-07T13:30:43;100426.53;;;12.33;96.71
8705;BME280;4389;41.932;25.904;2022-12-07T13:33:11;100431.00;;;12.33;96.53
8705;BME280;4389;41.932;25.904;2022-12-07T13:35:39;100441.38;;;12.26;95.83